Time;durP1;ratioP1;P1;durP2;ratioP2;P2;SDS_P1;SDS_P2;PMS_P1;PMS_P2;Temp;Humidity;BMP_temperature;BMP_pressure;BME280_temperature;BME280_humidity;BME280_pressure;Samples;Min_cycle;Max_cycle;Signal;HPM_P1;HPM_P2
2023/01/07 00:01:51;;;;;;;;;;;;;;;9.68;100;101510.7;;;;-74
2023/01/07 00:06:53;;;;;;;;;;;;;;;9.68;100;101513.8;;;;-76
2023/01/07 00:11:51;;;;;;;;;;;;;;;9.7;100;101498.6;;;;-73
2023/01/07 00:16:51;;;;;;;;;;;;;;;9.7;100;101501.6;;;;-73
2023/01/07 00:21:52;;;;;;;;;;;;;;;9.69;100;101496.7;;;;-73
2023/01/07 00:26:51;;;;;;;;;;;;;;;9.68;100;101494.5;;;;-75
2023/01/07 00:27:49;;;;;;;11.2;6.5;;;;;;;;;;;;;-73
2023/01/07 00:31:52;;;;;;;;;;;;;;;9.67;100;101487.6;;;;-73
2023/01/07 00:37:16;;;;;;;;;;;;;;;9.65;100;101489.8;;;;-76
2023/01/07 00:46:51;;;;;;;;;;;;;;;9.62;100;101480.8;;;;-75
2023/01/07 00:51:51;;;;;;;;;;;;;;;9.62;100;101480.5;;;;-73
2023/01/07 00:56:51;;;;;;;;;;;;;;;9.61;100;101474;;;;-75
2023/01/07 00:57:50;;;;;;;13;7.1;;;;;;;;;;;;;-74
2023/01/07 01:01:52;;;;;;;;;;;;;;;9.59;100;101470;;;;-74
2023/01/07 01:06:51;;;;;;;;;;;;;;;9.57;100;101465.2;;;;-73
2023/01/07 01:11:51;;;;;;;;;;;;;;;9.56;100;101466.5;;;;-73
2023/01/07 01:16:51;;;;;;;;;;;;;;;9.54;100;101465.6;;;;-77
2023/01/07 01:21:51;;;;;;;;;;;;;;;9.52;100;101448.8;;;;-73
2023/01/07 01:26:51;;;;;;;;;;;;;;;9.52;100;101450.9;;;;-74
2023/01/07 01:27:50;;;;;;;12;7;;;;;;;;;;;;;-75
2023/01/07 01:31:51;;;;;;;;;;;;;;;9.51;100;101435.1;;;;-73
2023/01/07 01:36:51;;;;;;;;;;;;;;;9.49;100;101436.1;;;;-75
2023/01/07 01:41:51;;;;;;;;;;;;;;;9.46;100;101431.9;;;;-73
2023/01/07 01:46:52;;;;;;;;;;;;;;;9.42;100;101432.6;;;;-73
2023/01/07 01:51:54;;;;;;;;;;;;;;;9.38;100;101435;;;;-75
2023/01/07 01:56:54;;;;;;;;;;;;;;;9.34;100;101431;;;;-72
2023/01/07 01:57:52;;;;;;;10.5;5.2;;;;;;;;;;;;;-74
2023/01/07 02:01:52;;;;;;;;;;;;;;;9.32;100;101438.4;;;;-74
2023/01/07 02:06:56;;;;;;;;;;;;;;;9.29;100;101437.6;;;;-73
2023/01/07 02:11:55;;;;;;;;;;;;;;;9.27;100;101441.9;;;;-73
2023/01/07 02:16:54;;;;;;;;;;;;;;;9.29;100;101447;;;;-73
2023/01/07 02:21:56;;;;;;;;;;;;;;;9.27;100;101438.9;;;;-74
2023/01/07 02:27:17;;;;;;;;;;;;;;;9.25;100;101438.7;;;;-74
2023/01/07 02:28:04;;;;;;;7.4;4.6;;;;;;;;;;;;;-73
2023/01/07 02:32:04;;;;;;;;;;;;;;;9.21;100;101441.8;;;;-74
2023/01/07 02:36:59;;;;;;;;;;;;;;;9.19;100;101438.1;;;;-73
2023/01/07 02:41:57;;;;;;;;;;;;;;;9.17;100;101441.8;;;;-73
2023/01/07 02:46:54;;;;;;;;;;;;;;;9.14;100;101440.2;;;;-75
2023/01/07 02:51:52;;;;;;;;;;;;;;;9.12;100;101429.9;;;;-72
2023/01/07 02:56:58;;;;;;;;;;;;;;;9.1;100;101428.6;;;;-73
2023/01/07 02:58:08;;;;;;;9.2;4.8;;;;;;;;;;;;;-73
2023/01/07 03:02:02;;;;;;;;;;;;;;;9.07;100;101423.3;;;;-74
2023/01/07 03:07:02;;;;;;;;;;;;;;;9.04;100;101414.2;;;;-74
2023/01/07 03:11:55;;;;;;;;;;;;;;;9.02;100;101411.8;;;;-74
2023/01/07 03:16:55;;;;;;;;;;;;;;;9.01;100;101405.7;;;;-73
2023/01/07 03:21:52;;;;;;;;;;;;;;;8.99;100;101406.1;;;;-74
2023/01/07 03:26:54;;;;;;;;;;;;;;;8.98;100;101399.4;;;;-73
2023/01/07 03:27:53;;;;;;;10.1;5.4;;;;;;;;;;;;;-73
2023/01/07 03:31:54;;;;;;;;;;;;;;;8.95;100;101398.2;;;;-73
2023/01/07 03:36:53;;;;;;;;;;;;;;;8.93;100;101394.9;;;;-73
2023/01/07 03:46:52;;;;;;;;;;;;;;;8.92;100;101396.4;;;;-73
2023/01/07 03:51:53;;;;;;;;;;;;;;;8.93;100;101378.5;;;;-75
2023/01/07 03:56:51;;;;;;;;;;;;;;;8.93;100;101360.5;;;;-74
2023/01/07 03:57:52;;;;;;;12.9;6.5;;;;;;;;;;;;;-73
2023/01/07 04:01:51;;;;;;;;;;;;;;;8.94;100;101363.4;;;;-74
2023/01/07 04:06:51;;;;;;;;;;;;;;;8.94;100;101362.5;;;;-73
2023/01/07 04:11:51;;;;;;;;;;;;;;;8.91;100;101359;;;;-74
2023/01/07 04:16:52;;;;;;;;;;;;;;;8.92;100;101354.3;;;;-72
2023/01/07 04:21:54;;;;;;;;;;;;;;;8.93;100;101354.4;;;;-73
2023/01/07 04:26:51;;;;;;;;;;;;;;;8.93;100;101340;;;;-74
2023/01/07 04:27:53;;;;;;;10.6;5.8;;;;;;;;;;;;;-73
2023/01/07 04:31:51;;;;;;;;;;;;;;;8.94;100;101334.6;;;;-74
2023/01/07 04:36:51;;;;;;;;;;;;;;;8.93;100;101339;;;;-73
2023/01/07 04:41:51;;;;;;;;;;;;;;;8.94;100;101332.7;;;;-72
2023/01/07 04:46:51;;;;;;;;;;;;;;;8.95;100;101327.3;;;;-73
2023/01/07 04:51:51;;;;;;;;;;;;;;;8.96;100;101321.1;;;;-75
2023/01/07 04:56:51;;;;;;;;;;;;;;;8.95;100;101313.6;;;;-73
2023/01/07 04:57:53;;;;;;;11.5;6.1;;;;;;;;;;;;;-73
2023/01/07 05:01:51;;;;;;;;;;;;;;;8.93;100;101302.6;;;;-73
2023/01/07 05:06:51;;;;;;;;;;;;;;;8.91;100;101304.4;;;;-74
2023/01/07 05:11:51;;;;;;;;;;;;;;;8.9;100;101298.5;;;;-72
2023/01/07 05:16:51;;;;;;;;;;;;;;;8.88;100;101286.2;;;;-74
2023/01/07 05:21:51;;;;;;;;;;;;;;;8.87;100;101288.1;;;;-73
2023/01/07 05:26:51;;;;;;;;;;;;;;;8.86;100;101285.2;;;;-73
2023/01/07 05:27:54;;;;;;;11.4;6.2;;;;;;;;;;;;;-74
2023/01/07 05:31:51;;;;;;;;;;;;;;;8.85;100;101279.4;;;;-73
2023/01/07 05:36:51;;;;;;;;;;;;;;;8.84;100;101274;;;;-73
2023/01/07 05:41:51;;;;;;;;;;;;;;;8.83;100;101268;;;;-73
2023/01/07 05:46:51;;;;;;;;;;;;;;;8.83;100;101264.6;;;;-73
2023/01/07 05:51:51;;;;;;;;;;;;;;;8.83;100;101262.7;;;;-73
2023/01/07 05:56:51;;;;;;;;;;;;;;;8.84;100;101259.1;;;;-73
2023/01/07 05:57:54;;;;;;;16;6.5;;;;;;;;;;;;;-73
2023/01/07 06:01:51;;;;;;;;;;;;;;;8.84;100;101256.7;;;;-73
2023/01/07 06:06:51;;;;;;;;;;;;;;;8.84;100;101250.4;;;;-73
2023/01/07 06:11:53;;;;;;;;;;;;;;;8.82;100;101248.1;;;;-74
2023/01/07 06:16:51;;;;;;;;;;;;;;;8.8;100;101238.7;;;;-73
2023/01/07 06:21:51;;;;;;;;;;;;;;;8.78;100;101228.3;;;;-73
2023/01/07 06:26:52;;;;;;;;;;;;;;;8.77;100;101224.3;;;;-73
2023/01/07 06:27:55;;;;;;;12.7;6.8;;;;;;;;;;;;;-74
2023/01/07 06:31:51;;;;;;;;;;;;;;;8.75;100;101212.2;;;;-74
2023/01/07 06:36:51;;;;;;;;;;;;;;;8.72;100;101203.9;;;;-73
2023/01/07 06:41:51;;;;;;;;;;;;;;;8.69;100;101201.1;;;;-74
2023/01/07 06:46:51;;;;;;;;;;;;;;;8.66;100;101204.1;;;;-74
2023/01/07 06:51:51;;;;;;;;;;;;;;;8.62;100;101198.5;;;;-73
2023/01/07 06:56:54;;;;;;;;;;;;;;;8.57;100;101198;;;;-72
2023/01/07 06:57:55;;;;;;;13.1;5.8;;;;;;;;;;;;;-73
2023/01/07 07:01:51;;;;;;;;;;;;;;;8.55;100;101201.5;;;;-74
2023/01/07 07:06:51;;;;;;;;;;;;;;;8.51;100;101197.3;;;;-74
2023/01/07 07:11:51;;;;;;;;;;;;;;;8.49;100;101197.2;;;;-73
2023/01/07 07:16:51;;;;;;;;;;;;;;;8.46;100;101194;;;;-74
2023/01/07 07:21:51;;;;;;;;;;;;;;;8.43;100;101184.2;;;;-74
2023/01/07 07:26:52;;;;;;;;;;;;;;;8.41;100;101178.9;;;;-73
2023/01/07 07:27:55;;;;;;;10;4.6;;;;;;;;;;;;;-73
2023/01/07 07:31:51;;;;;;;;;;;;;;;8.37;100;101180.7;;;;-76
2023/01/07 07:36:51;;;;;;;;;;;;;;;8.35;100;101178.2;;;;-76
2023/01/07 07:41:52;;;;;;;;;;;;;;;8.32;100;101178.7;;;;-76
2023/01/07 07:46:51;;;;;;;;;;;;;;;8.28;100;101181.5;;;;-73
2023/01/07 07:51:51;;;;;;;;;;;;;;;8.25;100;101177.4;;;;-74
2023/01/07 07:56:51;;;;;;;;;;;;;;;8.21;100;101168;;;;-73
2023/01/07 07:57:55;;;;;;;7.5;3.8;;;;;;;;;;;;;-73
2023/01/07 08:01:51;;;;;;;;;;;;;;;8.19;100;101157.8;;;;-72
2023/01/07 08:06:51;;;;;;;;;;;;;;;8.21;100;101157.7;;;;-73
2023/01/07 08:11:51;;;;;;;;;;;;;;;8.22;100;101153.7;;;;-73
2023/01/07 08:16:51;;;;;;;;;;;;;;;8.26;100;101146.9;;;;-73
2023/01/07 08:21:51;;;;;;;;;;;;;;;8.27;100;101153.1;;;;-73
2023/01/07 08:26:54;;;;;;;;;;;;;;;8.3;100;101145.6;;;;-76
2023/01/07 08:27:57;;;;;;;8.6;3.2;;;;;;;;;;;;;-76
2023/01/07 08:31:51;;;;;;;;;;;;;;;8.33;100;101140.5;;;;-73
2023/01/07 08:36:51;;;;;;;;;;;;;;;8.36;100;101132.6;;;;-77
2023/01/07 08:41:51;;;;;;;;;;;;;;;8.38;100;101122.2;;;;-76
2023/01/07 08:46:51;;;;;;;;;;;;;;;8.42;100;101122.5;;;;-77
2023/01/07 08:51:51;;;;;;;;;;;;;;;8.43;100;101113.2;;;;-76
2023/01/07 08:56:51;;;;;;;;;;;;;;;8.46;100;101099.6;;;;-76
2023/01/07 08:57:56;;;;;;;4.9;2.3;;;;;;;;;;;;;-73
2023/01/07 09:01:51;;;;;;;;;;;;;;;8.5;100;101105.1;;;;-73
2023/01/07 09:06:51;;;;;;;;;;;;;;;8.51;100;101103.9;;;;-76
2023/01/07 09:11:53;;;;;;;;;;;;;;;8.55;100;101097.3;;;;-78
2023/01/07 09:16:51;;;;;;;;;;;;;;;8.58;100;101098.6;;;;-77
2023/01/07 09:21:51;;;;;;;;;;;;;;;8.6;100;101089.8;;;;-76
2023/01/07 09:26:51;;;;;;;;;;;;;;;8.63;100;101085.1;;;;-76
2023/01/07 09:27:56;;;;;;;3.9;1.7;;;;;;;;;;;;;-77
2023/01/07 09:31:53;;;;;;;;;;;;;;;8.65;100;101078.1;;;;-76
2023/01/07 09:36:51;;;;;;;;;;;;;;;8.68;100;101074.5;;;;-78
2023/01/07 09:41:58;;;;;;;;;;;;;;;8.71;100;101070.1;;;;-76
2023/01/07 09:46:53;;;;;;;;;;;;;;;8.75;100;101056;;;;-76
2023/01/07 09:51:54;;;;;;;;;;;;;;;8.79;100;101055;;;;-76
2023/01/07 09:56:51;;;;;;;;;;;;;;;8.82;100;101048.1;;;;-77
2023/01/07 09:57:57;;;;;;;3.3;1.4;;;;;;;;;;;;;-76
2023/01/07 10:01:56;;;;;;;;;;;;;;;8.85;100;101044.6;;;;-77
2023/01/07 10:06:55;;;;;;;;;;;;;;;8.9;100;101036.9;;;;-79
2023/01/07 10:11:59;;;;;;;;;;;;;;;8.94;100;101027.2;;;;-78
2023/01/07 10:16:55;;;;;;;;;;;;;;;8.97;100;101011.7;;;;-77
2023/01/07 10:21:55;;;;;;;;;;;;;;;9;100;101010.9;;;;-77
2023/01/07 10:26:54;;;;;;;;;;;;;;;9.03;100;100988.5;;;;-77
2023/01/07 10:27:57;;;;;;;4;1.4;;;;;;;;;;;;;-76
2023/01/07 10:31:52;;;;;;;;;;;;;;;9.07;100;100979.4;;;;-77
2023/01/07 10:36:57;;;;;;;;;;;;;;;9.11;100;100974;;;;-76
2023/01/07 10:41:59;;;;;;;;;;;;;;;9.13;100;100963;;;;-76
2023/01/07 10:47:00;;;;;;;;;;;;;;;9.2;100;100936.7;;;;-77
2023/01/07 10:52:11;;;;;;;;;;;;;;;9.28;100;100936.6;;;;-79
2023/01/07 10:56:56;;;;;;;;;;;;;;;9.34;100;100919.4;;;;-78
2023/01/07 10:57:57;;;;;;;2.3;1.3;;;;;;;;;;;;;-76
2023/01/07 11:01:54;;;;;;;;;;;;;;;9.37;100;100908.3;;;;-76
2023/01/07 11:06:53;;;;;;;;;;;;;;;9.42;100;100898.9;;;;-77
2023/01/07 11:11:53;;;;;;;;;;;;;;;9.48;100;100885;;;;-77
2023/01/07 11:16:54;;;;;;;;;;;;;;;9.56;100;100874.9;;;;-77
2023/01/07 11:21:52;;;;;;;;;;;;;;;9.61;99.62891;100864.4;;;;-76
2023/01/07 11:26:52;;;;;;;;;;;;;;;9.66;99.38867;100851;;;;-77
2023/01/07 11:27:59;;;;;;;2.7;1.2;;;;;;;;;;;;;-76
2023/01/07 11:31:54;;;;;;;;;;;;;;;9.65;99.36523;100846.8;;;;-77
2023/01/07 11:36:51;;;;;;;;;;;;;;;9.65;99.04883;100840.3;;;;-77
2023/01/07 11:41:58;;;;;;;;;;;;;;;9.64;98.85645;100829.3;;;;-76
2023/01/07 11:46:51;;;;;;;;;;;;;;;9.64;98.42773;100829;;;;-78
2023/01/07 11:51:51;;;;;;;;;;;;;;;9.65;98.56348;100823.6;;;;-76
2023/01/07 11:56:52;;;;;;;;;;;;;;;9.62;98.56836;100809.8;;;;-78
2023/01/07 11:58:00;;;;;;;2.9;1.4;;;;;;;;;;;;;-78
2023/01/07 12:01:52;;;;;;;;;;;;;;;9.59;97.85742;100801.2;;;;-78
2023/01/07 12:06:52;;;;;;;;;;;;;;;9.57;98.02734;100786.9;;;;-78
2023/01/07 12:11:52;;;;;;;;;;;;;;;9.58;98.29688;100776.3;;;;-79
2023/01/07 12:16:52;;;;;;;;;;;;;;;9.59;98.23047;100771.6;;;;-77
2023/01/07 12:22:01;;;;;;;;;;;;;;;9.63;97.73535;100759.2;;;;-73
2023/01/07 12:26:55;;;;;;;;;;;;;;;9.66;97.6543;100760.9;;;;-75
2023/01/07 12:28:02;;;;;;;2.8;1.4;;;;;;;;;;;;;-73
2023/01/07 12:32:05;;;;;;;;;;;;;;;9.66;98.29102;100747.6;;;;-76
2023/01/07 12:36:55;;;;;;;;;;;;;;;9.63;97.46094;100731.5;;;;-73
2023/01/07 12:41:55;;;;;;;;;;;;;;;9.63;97.23926;100706.6;;;;-73
2023/01/07 12:46:57;;;;;;;;;;;;;;;9.63;96.93359;100706.7;;;;-73
2023/01/07 12:51:54;;;;;;;;;;;;;;;9.63;97.08789;100700;;;;-74
2023/01/07 12:56:56;;;;;;;;;;;;;;;9.61;96.64258;100681.9;;;;-73
2023/01/07 12:58:04;;;;;;;2.7;1.3;;;;;;;;;;;;;-73
2023/01/07 13:01:54;;;;;;;;;;;;;;;9.58;96.59277;100674.4;;;;-74
2023/01/07 13:06:56;;;;;;;;;;;;;;;9.61;96.7959;100652.6;;;;-73
2023/01/07 13:16:51;;;;;;;;;;;;;;;9.58;96.19922;100642.2;;;;-75
2023/01/07 13:21:52;;;;;;;;;;;;;;;9.58;96.05371;100627.1;;;;-74
2023/01/07 13:26:54;;;;;;;;;;;;;;;9.57;96.15137;100619.4;;;;-73
2023/01/07 13:28:10;;;;;;;2.1;1.3;;;;;;;;;;;;;-73
2023/01/07 13:32:03;;;;;;;;;;;;;;;9.56;96.0498;100616.3;;;;-73
2023/01/07 13:36:58;;;;;;;;;;;;;;;9.55;95.84863;100606.8;;;;-73
2023/01/07 13:42:02;;;;;;;;;;;;;;;9.55;95.99512;100596.4;;;;-72
2023/01/07 13:46:52;;;;;;;;;;;;;;;9.55;96.13379;100592.1;;;;-73
2023/01/07 13:51:51;;;;;;;;;;;;;;;9.55;95.88184;100590.6;;;;-74
2023/01/07 13:56:51;;;;;;;;;;;;;;;9.56;95.66602;100580.2;;;;-73
2023/01/07 13:57:58;;;;;;;2.3;1.4;;;;;;;;;;;;;-72
2023/01/07 14:02:05;;;;;;;;;;;;;;;9.54;95.57129;100571.6;;;;-73
2023/01/07 14:06:53;;;;;;;;;;;;;;;9.53;95.67969;100554.2;;;;-83
2023/01/07 14:11:59;;;;;;;;;;;;;;;9.5;95.53223;100555.4;;;;-76
2023/01/07 14:16:58;;;;;;;;;;;;;;;9.48;95.77051;100544.6;;;;-75
2023/01/07 14:21:54;;;;;;;;;;;;;;;9.47;95.87598;100546.6;;;;-81
2023/01/07 14:26:58;;;;;;;;;;;;;;;9.48;96.06543;100530.1;;;;-76
2023/01/07 14:28:20;;;;;;;2.7;1.5;;;;;;;;;;;;;-77
2023/01/07 14:31:52;;;;;;;;;;;;;;;9.49;95.77051;100542.6;;;;-76
2023/01/07 14:37:14;;;;;;;;;;;;;;;9.49;95.94824;100544.2;;;;-76
2023/01/07 14:42:02;;;;;;;;;;;;;;;9.51;95.63184;100535;;;;-77
2023/01/07 14:46:56;;;;;;;;;;;;;;;9.5;95.01465;100527.8;;;;-77
2023/01/07 14:51:57;;;;;;;;;;;;;;;9.52;95.71094;100527.1;;;;-76
2023/01/07 14:56:56;;;;;;;;;;;;;;;9.52;95.37012;100527.2;;;;-78
2023/01/07 14:58:03;;;;;;;2.9;1.7;;;;;;;;;;;;;-77
2023/01/07 15:01:55;;;;;;;;;;;;;;;9.51;94.96191;100524.4;;;;-78
2023/01/07 15:06:53;;;;;;;;;;;;;;;9.51;94.71973;100513;;;;-76
2023/01/07 15:16:54;;;;;;;;;;;;;;;9.52;95.01855;100506.4;;;;-78
2023/01/07 15:21:59;;;;;;;;;;;;;;;9.5;94.78516;100512.4;;;;-76
2023/01/07 15:26:52;;;;;;;;;;;;;;;9.48;95.60352;100498.8;;;;-77
2023/01/07 15:28:04;;;;;;;2.9;1.6;;;;;;;;;;;;;-77
2023/01/07 15:31:55;;;;;;;;;;;;;;;9.48;95.05469;100499.7;;;;-78
2023/01/07 15:36:52;;;;;;;;;;;;;;;9.44;95.38672;100488.6;;;;-76
2023/01/07 15:41:53;;;;;;;;;;;;;;;9.39;96.06934;100469.8;;;;-76
2023/01/07 15:46:51;;;;;;;;;;;;;;;9.35;96.23438;100451.8;;;;-76
2023/01/07 15:51:53;;;;;;;;;;;;;;;9.3;96.83789;100462.1;;;;-76
2023/01/07 15:56:52;;;;;;;;;;;;;;;9.25;97.29688;100450.2;;;;-77
2023/01/07 15:58:03;;;;;;;3.2;1.8;;;;;;;;;;;;;-78
2023/01/07 16:01:53;;;;;;;;;;;;;;;9.22;97.07227;100445.9;;;;-76
2023/01/07 16:06:51;;;;;;;;;;;;;;;9.17;97.43457;100441.7;;;;-76
2023/01/07 16:11:51;;;;;;;;;;;;;;;9.15;97.39746;100422.9;;;;-77
2023/01/07 16:17:02;;;;;;;;;;;;;;;9.13;97.38281;100433.2;;;;-76
2023/01/07 16:21:54;;;;;;;;;;;;;;;9.11;97.77344;100429.8;;;;-76
2023/01/07 16:26:54;;;;;;;;;;;;;;;9.09;97.75879;100425.8;;;;-77
2023/01/07 16:28:01;;;;;;;4.3;2;;;;;;;;;;;;;-77
2023/01/07 16:31:51;;;;;;;;;;;;;;;9.07;98.21094;100427.8;;;;-77
2023/01/07 16:36:52;;;;;;;;;;;;;;;9.03;98.40234;100439.9;;;;-77
2023/01/07 16:42:18;;;;;;;;;;;;;;;9.01;98.63965;100428.9;;;;-78
2023/01/07 16:47:01;;;;;;;;;;;;;;;8.99;99.00586;100431.2;;;;-76
2023/01/07 16:51:52;;;;;;;;;;;;;;;8.96;99.01074;100427.5;;;;-77
2023/01/07 16:56:54;;;;;;;;;;;;;;;8.95;98.9209;100423.6;;;;-76
2023/01/07 16:58:02;;;;;;;3.5;2;;;;;;;;;;;;;-77
2023/01/07 17:01:51;;;;;;;;;;;;;;;8.94;99.08105;100424.1;;;;-76
2023/01/07 17:06:53;;;;;;;;;;;;;;;8.93;98.83984;100414.2;;;;-77
2023/01/07 17:11:53;;;;;;;;;;;;;;;8.93;98.8291;100423.4;;;;-77
2023/01/07 17:17:01;;;;;;;;;;;;;;;8.92;98.47656;100411.5;;;;-78
2023/01/07 17:21:52;;;;;;;;;;;;;;;8.92;98.30078;100411.8;;;;-77
2023/01/07 17:26:54;;;;;;;;;;;;;;;8.91;98.34277;100405.8;;;;-78
2023/01/07 17:28:04;;;;;;;4.4;2.3;;;;;;;;;;;;;-77
2023/01/07 17:31:51;;;;;;;;;;;;;;;8.9;98.79004;100400.2;;;;-77
2023/01/07 17:36:51;;;;;;;;;;;;;;;8.88;99.34473;100397.7;;;;-77
2023/01/07 17:46:51;;;;;;;;;;;;;;;8.82;100;100380.4;;;;-76
2023/01/07 17:51:51;;;;;;;;;;;;;;;8.8;100;100376.7;;;;-78
2023/01/07 17:56:51;;;;;;;;;;;;;;;8.76;100;100368.6;;;;-76
2023/01/07 17:58:03;;;;;;;4.8;2.4;;;;;;;;;;;;;-76
2023/01/07 18:01:53;;;;;;;;;;;;;;;8.74;100;100370.7;;;;-77
2023/01/07 18:06:51;;;;;;;;;;;;;;;8.73;100;100372.1;;;;-77
2023/01/07 18:16:52;;;;;;;;;;;;;;;8.7;100;100345.7;;;;-78
2023/01/07 18:21:52;;;;;;;;;;;;;;;8.68;100;100347.5;;;;-78
2023/01/07 18:26:51;;;;;;;;;;;;;;;8.66;100;100332.2;;;;-77
2023/01/07 20:02:39;;;;;;;;;;;;;;;8.77;100;100262.8;;;;-77
2023/01/07 20:16:19;;;;;;;7.1;3.4;;;;;;;;;;;;;-85
2023/01/07 21:28:27;;;;;;;;;;;;;;;8.75;100;100232.4;;;;-75
2023/01/07 22:16:31;;;;;;;7.5;3.8;;;;;;;;;;;;;-80
2023/01/07 23:41:03;;;;;;;;;;;;;;;8.67;100;100250;;;;-79
